JRLK1: John Redmond Lake

Data processed at Mon Feb 08 23:06:16 2016 Central Standard Time


All information presented herein is the property of the government of the United States of America and may be revised or deleted at any time without prior notice.
Dissemination of this information without the expressed written consent of the Public Affairs Office, Tulsa District U.S. Army Corps of Engineers is strictly prohibited.
These data are gathered electronically and, as presented, have not undergone any form of quality control. These data are not guaranteed to be valid or correct.
Go to home page.
Go to station list.
Go to station map.

Upstream stations:

Downstream station: Previous Day
Next Day
Current Day

Display graphics.
Display DCP transmissions.


    
    SHEF ID:       JRLK1     John Redmond Lake
    STATION TYPE:  RESERVOIR
    Flood Control Pool:  Bottom = 1041.00, Top = 1068.00
    
                   PRECIP ELEVATION   STORAGE    INFLOW   RELEASE  AIR-TEMP  WIND-DIRWIND-SPEED REL-HUMID SOLAR-RAD   VOLTAGE  BAT-LOAD
                   INCHES      FEET      ACFT       CFS       CFS     DEG-F   DEGREES       MPH   PERCENT      W/M2     VOLTS     VOLTS
                     GOES      GOES      GOES  COMPRESQ  COMPRESQ      GOES      GOES      GOES      GOES      GOES      GOES      GOES
       (Cen)
    02/08 01:00      0.00   1041.55     72502        10       576     38.70    308.50     30.68     55.38      0.00     13.88     13.59
    02/08 02:00      0.00   1041.68     73731        21       576     37.94    313.50     28.71     55.01      0.00     13.88     13.59
    02/08 03:00      0.00   1041.97     76471        31       582     37.15    318.20     31.12     51.35      1.00     13.88     13.59
    02/08 04:00      0.00   1041.59     72879       939       581     36.27    305.90     27.21     51.34      0.00     13.88     13.12
    02/08 05:00      0.00   1041.66     73541       939       576     35.83    303.60     29.70     53.06      0.00     13.88     13.59
    02/08 06:00      0.00   1041.90     75810      2207       581     36.27    308.60     28.89     54.46      0.00     13.88     13.59
    02/08 07:00      0.00   1041.77     74581      3474       583     37.04    315.10     30.85     52.02      0.00     13.88     13.59
    02/08 08:00      0.00   1041.68     73731      4516       579     36.61    317.70     31.23     55.26     30.00     13.88     13.59
    02/08 09:00      0.00   1041.59     72879      3608       576     35.62    323.80     34.07     58.31    114.00     13.88     13.59
    02/08 10:00      0.00   1041.85     75337      4009       579     33.19    344.10     19.78     76.20    123.00     13.88     13.59
    02/08 11:00      0.00   1042.20     78755      2731       589     34.41    328.60     32.38     56.60    395.00     13.87     13.59
    02/08 12:00      0.00   1041.82     75053      1453       588     35.40    335.30     31.33     53.49    494.00     13.87     13.59
    02/08 13:00      0.00   1041.65     73447       401       580     36.27    331.70     36.18     49.33    743.00     13.88     13.12
    02/08 14:00      0.00   1042.16     78356       401       585     36.16    323.30     32.13     52.63    387.00     13.87     12.83
    02/08 15:00      0.00   1041.89     75715         5       589     37.36    331.40     33.95     45.49    511.00     13.87     12.48
    02/08 16:00      0.00   1041.56     72596         0       579     38.14    329.20     36.69     40.85    340.00     13.86     12.77
    02/08 17:00      0.00   1042.65     83257        11       591     38.03    327.40     35.66     38.10    177.00     13.87     12.42
    02/08 18:00      0.00   1041.84     75242        36       595     36.93    324.00     28.39     44.51      5.00     13.87     12.77
    02/08 19:00      0.00   1041.52     72218        99       578     35.73    325.20     20.18     52.33      0.00     13.87     13.00
    02/08 20:00      0.00   1041.49     71934        99       572     34.52    320.50     18.65     54.28      1.00     13.87     13.00
    02/08 21:00      0.00   1041.56     72596       156       573     36.61    315.90     26.02     55.07      0.00     13.86     13.53
    02/08 22:00      0.00   1041.47     71745        88       573     35.73    318.90     24.83     55.93      0.00     13.87     13.59
    02/08 23:00      0.00   1041.46     71650      ----      ----     34.84    317.80     18.58     60.69      0.00     13.86     13.53
    02/09 00:00      ----      ----      ----      ----      ----      ----      ----      ----      ----      ----      ----      ----